Time;durP1;ratioP1;P1;durP2;ratioP2;P2;SDS_P1;SDS_P2;PMS_P1;PMS_P2;Temp;Humidity;BMP_temperature;BMP_pressure;BME280_temperature;BME280_humidity;BME280_pressure;Samples;Min_cycle;Max_cycle;Signal;HPM_P1;HPM_P2
2022/03/21 00:01:16;;;;;;;10.45;3.95;;;;;;;7.83;67.04;101888.69;2084310;28;20103;-78
2022/03/21 00:02:37;;;;;;;7.75;4.18;;;;;;;7.79;66.98;101889.38;2084249;28;20053;-79
2022/03/21 00:03:59;;;;;;;12.77;6.55;;;;;;;7.82;67.36;101884.25;2085992;28;20061;-81
2022/03/21 00:05:21;;;;;;;7.18;4.20;;;;;;;7.86;68.09;101879.22;2093894;28;20055;-80
2022/03/21 00:06:43;;;;;;;8.60;4.35;;;;;;;7.76;68.46;101884.88;2090527;28;20048;-79
2022/03/21 00:08:05;;;;;;;8.27;4.88;;;;;;;7.77;68.71;101878.78;2087493;28;20563;-80
2022/03/21 00:09:28;;;;;;;9.63;4.43;;;;;;;7.81;68.91;101866.72;2108142;28;20039;-81
2022/03/21 00:10:50;;;;;;;10.88;5.38;;;;;;;7.90;68.99;101867.09;2100867;28;20098;-81
2022/03/21 00:12:14;;;;;;;9.55;4.97;;;;;;;7.99;69.01;101860.53;2089501;28;20672;-82
2022/03/21 00:13:36;;;;;;;5.57;3.75;;;;;;;8.05;69.00;101848.47;2101748;28;20036;-81
2022/03/21 00:14:58;;;;;;;7.63;3.50;;;;;;;8.02;69.35;101844.84;2092401;28;20052;-81
2022/03/21 00:16:23;;;;;;;9.45;4.63;;;;;;;8.01;69.65;101832.53;2087441;28;20135;-81
2022/03/21 00:17:44;;;;;;;13.85;6.60;;;;;;;8.03;70.03;101837.88;2093470;28;20412;-82
2022/03/21 00:19:07;;;;;;;12.70;6.40;;;;;;;8.06;70.46;101842.38;2094172;28;20055;-81
2022/03/21 00:20:30;;;;;;;10.85;6.18;;;;;;;8.06;70.64;101839.75;2076569;28;20136;-81
2022/03/21 00:21:53;;;;;;;15.43;7.80;;;;;;;8.08;71.09;101840.69;2085504;28;20106;-81
2022/03/21 00:23:16;;;;;;;17.38;11.32;;;;;;;8.06;70.95;101845.00;2083491;28;20068;-81
2022/03/21 00:24:40;;;;;;;13.70;8.85;;;;;;;8.10;70.97;101837.31;2077734;28;20132;-81
2022/03/21 00:26:04;;;;;;;19.25;11.10;;;;;;;8.20;70.97;101834.25;2091529;28;20047;-81
2022/03/21 00:27:26;;;;;;;14.38;8.50;;;;;;;8.29;71.08;101829.34;2083439;28;20053;-80
2022/03/21 00:28:52;;;;;;;12.95;7.18;;;;;;;8.36;70.71;101831.44;2093903;28;20733;-81
2022/03/21 00:30:15;;;;;;;16.85;7.30;;;;;;;8.41;70.71;101834.25;2084885;28;20045;-81
2022/03/21 00:31:39;;;;;;;11.48;5.72;;;;;;;8.44;70.68;101833.50;2088308;28;20055;-81
2022/03/21 00:33:02;;;;;;;12.65;6.32;;;;;;;8.44;70.89;101829.13;2091175;28;20090;-81
2022/03/21 00:34:25;;;;;;;12.13;7.38;;;;;;;8.45;71.12;101833.56;2093706;28;20042;-80
2022/03/21 00:35:50;;;;;;;11.45;6.07;;;;;;;8.49;71.04;101830.22;2083603;28;20095;-80
2022/03/21 00:37:12;;;;;;;11.63;5.07;;;;;;;8.54;71.23;101828.66;2102004;28;20040;-81
2022/03/21 00:38:36;;;;;;;;;;;;;;;8.56;71.19;101829.63;2082025;28;20477;-81
2022/03/21 00:39:58;;;;;;;8.60;4.72;;;;;;;8.51;70.91;101825.94;2085521;28;20337;-81
2022/03/21 00:41:22;;;;;;;7.75;5.00;;;;;;;8.42;71.11;101822.00;2094726;28;20053;-81
2022/03/21 00:42:45;;;;;;;11.32;4.60;;;;;;;8.35;71.60;101819.13;2094714;28;20063;-81
2022/03/21 00:44:08;;;;;;;6.75;4.38;;;;;;;8.36;71.78;101812.13;2095564;28;20053;-81
2022/03/21 00:45:32;;;;;;;9.10;4.18;;;;;;;8.34;72.12;101812.06;2101340;28;20091;-81
2022/03/21 00:46:55;;;;;;;6.50;4.40;;;;;;;8.31;72.41;101803.16;2089254;28;20584;-81
2022/03/21 00:48:17;;;;;;;10.60;5.03;;;;;;;8.30;72.49;101801.31;2084396;28;20088;-81
2022/03/21 00:49:38;;;;;;;10.88;5.70;;;;;;;8.28;72.78;101796.00;2102152;28;20047;-81
2022/03/21 00:51:01;;;;;;;7.32;4.13;;;;;;;8.27;72.84;101795.94;2087637;28;20056;-81
2022/03/21 00:52:23;;;;;;;11.68;5.35;;;;;;;8.27;72.90;101796.81;2084649;28;20049;-82
2022/03/21 00:53:45;;;;;;;11.57;6.15;;;;;;;8.29;73.12;101791.63;2087214;28;20299;-81
2022/03/21 00:55:07;;;;;;;5.53;2.78;;;;;;;8.30;72.96;101794.38;2092487;28;20052;-82
2022/03/21 00:56:30;;;;;;;12.10;4.25;;;;;;;8.29;73.09;101796.88;2092380;28;20094;-82
2022/03/21 00:57:52;;;;;;;7.28;3.17;;;;;;;8.28;73.20;101784.56;2095527;28;20510;-81
2022/03/21 00:59:13;;;;;;;11.13;5.80;;;;;;;8.27;73.45;101783.66;2091559;28;20052;-81
2022/03/21 01:00:37;;;;;;;8.02;4.53;;;;;;;8.24;73.61;101775.66;2084346;28;20518;-82
2022/03/21 01:02:00;;;;;;;9.00;4.53;;;;;;;8.26;73.94;101781.91;2087290;28;20044;-82
2022/03/21 01:03:23;;;;;;;6.53;3.80;;;;;;;8.29;73.45;101782.00;2099338;28;20077;-82
2022/03/21 01:04:44;;;;;;;6.93;3.70;;;;;;;8.32;73.45;101766.41;2073246;28;20687;-81
2022/03/21 01:06:06;;;;;;;3.92;2.30;;;;;;;8.27;73.21;101769.66;2103893;28;20134;-81
2022/03/21 01:07:28;;;;;;;3.92;2.03;;;;;;;8.13;74.20;101766.44;2091065;28;20052;-82
2022/03/21 01:08:51;;;;;;;3.92;2.15;;;;;;;8.04;75.05;101763.41;2103653;28;20048;-82
2022/03/21 01:10:15;;;;;;;4.93;3.17;;;;;;;7.97;75.61;101772.78;2084040;28;20043;-82
2022/03/21 01:11:37;;;;;;;5.95;2.63;;;;;;;7.94;75.78;101777.91;2091014;28;20044;-82
2022/03/21 01:13:00;;;;;;;10.15;5.72;;;;;;;7.91;75.99;101782.16;2090917;28;20593;-82
2022/03/21 01:14:21;;;;;;;10.77;4.63;;;;;;;7.89;76.19;101773.28;2092578;28;20147;-82
2022/03/21 01:15:44;;;;;;;10.52;4.50;;;;;;;7.96;76.04;101775.34;2097272;28;20095;-82
2022/03/21 01:17:09;;;;;;;7.97;4.72;;;;;;;8.06;75.89;101776.66;2086649;28;20043;-82
2022/03/21 01:18:31;;;;;;;10.95;5.30;;;;;;;8.13;75.69;101768.19;2093086;28;20135;-82
2022/03/21 01:19:55;;;;;;;12.02;6.53;;;;;;;8.20;75.26;101770.22;2086415;28;20049;-81
2022/03/21 01:21:17;;;;;;;8.50;4.15;;;;;;;8.22;75.21;101763.28;2078505;28;20142;-81
2022/03/21 01:22:40;;;;;;;11.70;6.35;;;;;;;8.19;75.22;101763.16;2090320;28;20056;-81
2022/03/21 01:24:02;;;;;;;14.70;8.18;;;;;;;8.17;75.18;101765.72;2086567;28;20144;-82
2022/03/21 01:25:25;;;;;;;12.05;6.57;;;;;;;8.17;75.15;101764.81;2089533;28;20087;-82
2022/03/21 01:26:46;;;;;;;10.55;4.75;;;;;;;8.19;75.21;101760.53;2076256;28;20049;-82
2022/03/21 01:28:09;;;;;;;7.00;3.67;;;;;;;8.21;75.53;101757.13;2083920;28;20045;-81
2022/03/21 01:29:30;;;;;;;9.18;4.90;;;;;;;8.22;75.53;101751.03;2110023;28;20605;-81
2022/03/21 01:30:54;;;;;;;6.53;4.15;;;;;;;8.24;75.44;101756.34;2083918;28;20080;-81
2022/03/21 01:32:18;;;;;;;9.73;5.88;;;;;;;8.27;75.64;101757.38;2081363;28;20200;-82
2022/03/21 01:33:41;;;;;;;11.10;4.88;;;;;;;8.29;75.31;101757.44;2086662;28;20053;-81
2022/03/21 01:35:05;;;;;;;13.32;5.82;;;;;;;8.31;75.34;101761.06;2083901;28;20056;-82
2022/03/21 01:36:27;;;;;;;4.25;1.83;;;;;;;8.29;75.15;101757.44;2092571;28;20465;-81
2022/03/21 01:37:49;;;;;;;7.00;3.13;;;;;;;8.25;75.42;101755.53;2097544;28;20057;-81
2022/03/21 01:39:11;;;;;;;8.25;2.83;;;;;;;8.20;75.65;101767.59;2089376;28;20447;-81
2022/03/21 01:40:34;;;;;;;10.13;3.47;;;;;;;8.15;75.72;101762.13;2081012;28;20045;-81
2022/03/21 01:41:56;;;;;;;8.07;3.33;;;;;;;8.14;76.02;101751.56;2076072;28;20052;-81
2022/03/21 01:43:18;;;;;;;8.68;4.82;;;;;;;8.15;76.17;101763.84;2076697;28;20045;-82
2022/03/21 01:44:40;;;;;;;3.03;2.20;;;;;;;8.15;76.28;101737.56;2083920;28;20428;-81
2022/03/21 01:46:03;;;;;;;6.68;2.78;;;;;;;8.08;76.71;101744.28;2094783;28;20143;-81
2022/03/21 01:47:27;;;;;;;7.30;3.53;;;;;;;8.11;76.61;101754.06;2089360;28;20075;-81
2022/03/21 01:48:48;;;;;;;9.60;5.07;;;;;;;8.15;76.95;101750.72;2091463;28;20049;-81
2022/03/21 01:50:12;;;;;;;8.40;3.75;;;;;;;8.20;76.78;101749.19;2086320;28;20103;-81
2022/03/21 01:51:36;;;;;;;6.53;3.63;;;;;;;8.24;76.78;101753.72;2084124;28;20044;-81
2022/03/21 01:56:16;;;;;;;7.00;4.20;;;;;;;8.39;76.13;101751.75;2089145;28;20065;-82
2022/03/21 01:57:38;;;;;;;8.55;4.82;;;;;;;8.38;75.89;101750.88;2084012;28;20045;-82
2022/03/21 01:59:01;;;;;;;6.90;4.43;;;;;;;8.39;76.17;101747.41;2094936;28;20133;-81
2022/03/21 02:00:24;;;;;;;7.72;4.57;;;;;;;8.37;76.00;101741.16;2085883;28;20151;-81
2022/03/21 02:01:46;;;;;;;10.00;4.35;;;;;;;8.37;75.85;101745.53;2084256;28;20041;-82
2022/03/21 02:03:10;;;;;;;;;;;;;;;8.36;75.92;101742.00;2109109;28;20047;-81
2022/03/21 02:04:32;;;;;;;10.57;4.70;;;;;;;8.37;75.99;101735.91;2091676;28;20415;-81
2022/03/21 02:05:55;;;;;;;10.43;5.60;;;;;;;8.39;76.19;101733.34;2083883;28;20045;-81
2022/03/21 02:07:17;;;;;;;8.45;5.18;;;;;;;8.42;76.20;101736.09;2084012;28;20110;-81
2022/03/21 02:08:40;;;;;;;9.30;4.93;;;;;;;8.42;76.24;101737.81;2091385;28;20439;-81
2022/03/21 02:10:03;;;;;;;9.45;3.40;;;;;;;8.44;76.13;101731.78;2085010;28;20045;-81
2022/03/21 02:11:27;;;;;;;6.57;3.85;;;;;;;8.45;76.25;101736.22;2084159;28;20045;-80
2022/03/21 02:12:49;;;;;;;9.60;4.22;;;;;;;8.45;76.25;101728.31;2084043;28;20049;-81
2022/03/21 02:14:11;;;;;;;8.48;2.88;;;;;;;8.45;76.01;101728.31;2078396;28;20133;-80
2022/03/21 02:15:34;;;;;;;7.40;4.30;;;;;;;8.47;76.02;101731.03;2078809;28;20049;-81
2022/03/21 02:16:57;;;;;;;13.88;4.13;;;;;;;8.47;76.05;101731.03;2092321;28;20074;-81
2022/03/21 02:18:24;;;;;;;11.50;3.88;;;;;;;8.49;76.09;101732.84;2083153;28;20086;-81
2022/03/21 02:19:48;;;;;;;9.15;3.30;;;;;;;8.50;75.97;101741.66;2089084;28;20044;-81
2022/03/21 02:21:16;;;;;;;8.52;3.63;;;;;;;8.49;75.38;101738.13;2086465;28;20079;-81
2022/03/21 02:22:49;;;;;;;9.13;3.55;;;;;;;8.50;75.30;101732.03;2097949;28;20040;-81
2022/03/21 02:24:21;;;;;;;7.88;4.40;;;;;;;8.53;75.53;101729.53;2092000;28;20045;-81
2022/03/21 02:25:46;;;;;;;6.50;3.78;;;;;;;8.55;75.50;101735.72;2087193;28;20128;-80
2022/03/21 02:27:12;;;;;;;5.40;2.72;;;;;;;8.56;75.57;101745.41;2092674;28;20515;-81
2022/03/21 02:28:36;;;;;;;9.98;3.47;;;;;;;8.56;75.18;101740.16;2086640;28;20056;-81
2022/03/21 02:30:01;;;;;;;3.15;1.80;;;;;;;8.57;75.25;101735.78;2082201;28;20144;-81
2022/03/21 02:31:24;;;;;;;6.30;2.42;;;;;;;8.56;74.65;101744.53;2084107;28;20071;-81
2022/03/21 02:32:49;;;;;;;5.13;2.95;;;;;;;8.56;74.82;101747.16;2079226;28;20049;-81
2022/03/21 02:34:11;;;;;;;5.30;2.13;;;;;;;8.54;74.51;101736.56;2095234;28;20063;-81
2022/03/21 02:35:35;;;;;;;8.55;3.63;;;;;;;8.54;74.55;101736.56;2096648;28;20068;-81
2022/03/21 02:36:58;;;;;;;11.13;4.57;;;;;;;8.55;74.38;101740.09;2092128;28;20075;-82
2022/03/21 02:38:21;;;;;;;5.47;2.42;;;;;;;8.54;74.01;101740.91;2091978;28;20044;-82
2022/03/21 02:39:44;;;;;;;6.22;3.45;;;;;;;8.54;73.50;101738.28;2091798;28;20052;-81
2022/03/21 02:41:07;;;;;;;2.50;1.80;;;;;;;8.55;73.26;101737.47;2083723;28;20098;-81
2022/03/21 02:42:30;;;;;;;6.82;3.35;;;;;;;8.54;73.26;101736.56;2083490;28;20037;-81
2022/03/21 02:43:54;;;;;;;4.70;2.28;;;;;;;8.52;72.19;101742.63;2100088;28;20500;-81
2022/03/21 02:45:16;;;;;;;10.60;3.78;;;;;;;8.53;72.13;101749.69;2091740;28;20056;-82
2022/03/21 02:46:39;;;;;;;6.70;3.10;;;;;;;8.53;72.36;101741.78;2091729;28;20041;-81
2022/03/21 02:48:02;;;;;;;5.68;3.05;;;;;;;8.53;72.32;101734.78;2093910;28;20083;-81
2022/03/21 02:49:24;;;;;;;5.10;3.33;;;;;;;8.56;73.01;101744.53;2091914;28;20135;-82
2022/03/21 02:50:55;;;;;;;7.85;3.53;;;;;;;8.56;72.57;101742.78;2084149;28;20076;-81
2022/03/21 02:52:20;;;;;;;6.05;2.40;;;;;;;8.55;71.96;101741.00;2085799;28;20045;-82
2022/03/21 02:53:43;;;;;;;4.65;1.98;;;;;;;8.57;71.84;101747.22;2083834;28;20609;-81
2022/03/21 02:55:07;;;;;;;10.57;3.53;;;;;;;8.58;72.17;101743.75;2078248;28;20041;-81
2022/03/21 02:56:30;;;;;;;13.82;3.10;;;;;;;8.61;72.41;101737.69;2078121;28;20080;-82
2022/03/21 02:57:53;;;;;;;6.65;2.65;;;;;;;8.62;72.12;101734.22;2073426;28;20500;-82
2022/03/21 02:59:17;;;;;;;9.52;4.35;;;;;;;8.65;72.22;101751.06;2081009;28;20052;-82
2022/03/21 03:00:40;;;;;;;10.65;4.40;;;;;;;8.65;72.65;101740.53;2090883;28;20041;-82
2022/03/21 03:02:02;;;;;;;8.15;3.40;;;;;;;8.67;72.40;101748.47;2091892;28;20493;-82
2022/03/21 03:03:25;;;;;;;7.72;4.55;;;;;;;8.67;72.29;101751.09;2094342;28;20045;-82
2022/03/21 03:04:46;;;;;;;6.60;3.13;;;;;;;8.66;71.98;101749.31;2094595;28;20105;-82
2022/03/21 03:06:09;;;;;;;6.25;2.42;;;;;;;8.65;71.56;101750.16;2094459;28;20048;-82
2022/03/21 03:07:30;;;;;;;5.32;3.13;;;;;;;8.64;72.16;101754.53;2094661;28;20041;-82
2022/03/21 03:08:53;;;;;;;5.80;2.85;;;;;;;8.65;71.80;101745.78;2088066;28;20057;-82
2022/03/21 03:10:15;;;;;;;6.68;2.05;;;;;;;8.66;71.54;101750.19;2083414;28;20075;-82
2022/03/21 03:11:40;;;;;;;5.07;2.75;;;;;;;8.68;71.41;101756.44;2094437;28;20500;-83
2022/03/21 03:13:02;;;;;;;5.75;2.30;;;;;;;8.68;70.94;101750.25;2086430;28;20045;-83
2022/03/21 03:14:25;;;;;;;8.65;3.38;;;;;;;8.70;71.13;101756.50;2083237;28;20130;-82
2022/03/21 03:15:48;;;;;;;5.75;2.60;;;;;;;8.70;71.07;101757.41;2077934;28;20084;-82
2022/03/21 03:17:10;;;;;;;8.98;3.58;;;;;;;8.75;71.48;101755.84;2083889;28;20037;-82
2022/03/21 03:18:31;;;;;;;4.60;2.70;;;;;;;8.76;71.32;101755.00;2094475;28;20143;-82
2022/03/21 03:19:54;;;;;;;3.72;1.88;;;;;;;8.78;71.37;101753.34;2091140;28;20056;-82
2022/03/21 03:21:22;;;;;;;9.20;3.30;;;;;;;8.78;71.23;101755.97;2091670;28;20135;-82
2022/03/21 03:22:44;;;;;;;7.85;4.15;;;;;;;8.83;71.29;101747.34;2092937;28;20087;-82
2022/03/21 03:24:10;;;;;;;9.48;3.60;;;;;;;8.86;71.51;101753.59;2083384;28;20118;-82
2022/03/21 03:25:33;;;;;;;7.50;2.53;;;;;;;8.87;71.46;101751.88;2084491;28;20051;-81
2022/03/21 03:26:57;;;;;;;7.80;2.72;;;;;;;8.87;71.67;101742.22;2075416;28;20109;-82
2022/03/21 03:28:18;;;;;;;7.10;2.90;;;;;;;8.87;71.78;101751.88;2081155;28;20188;-81
2022/03/21 03:29:40;;;;;;;6.90;2.83;;;;;;;8.87;72.15;101750.13;2085894;28;20136;-80
2022/03/21 03:31:03;;;;;;;6.72;3.53;;;;;;;8.89;72.30;101750.19;2091129;28;20115;-81
2022/03/21 03:32:26;;;;;;;9.75;3.25;;;;;;;8.89;72.30;101751.09;2093944;28;20040;-80
2022/03/21 03:33:48;;;;;;;8.45;3.08;;;;;;;8.89;72.66;101750.19;2094422;28;20562;-80
2022/03/21 03:35:11;;;;;;;6.93;3.00;;;;;;;8.88;72.77;101745.75;2099889;28;20563;-81
2022/03/21 03:36:33;;;;;;;7.78;3.35;;;;;;;8.88;72.61;101756.28;2102590;28;20110;-81
2022/03/21 03:37:56;;;;;;;5.32;2.70;;;;;;;8.84;72.75;101757.03;2102575;28;20044;-80
2022/03/21 03:39:19;;;;;;;7.22;2.60;;;;;;;8.80;72.92;101750.72;2094007;28;20098;-81
2022/03/21 03:40:43;;;;;;;8.10;2.95;;;;;;;8.77;72.82;101758.53;2100094;28;20092;-81
2022/03/21 03:42:08;;;;;;;5.88;2.47;;;;;;;8.74;72.86;101761.03;2096986;28;20102;-81
2022/03/21 03:43:31;;;;;;;7.50;3.00;;;;;;;8.69;72.37;101752.97;2109242;28;20135;-81
2022/03/21 03:44:53;;;;;;;4.80;2.42;;;;;;;8.67;72.07;101761.63;2096204;28;20416;-80
2022/03/21 03:46:17;;;;;;;7.43;3.10;;;;;;;8.67;72.24;101767.78;2080539;28;20038;-80
2022/03/21 03:47:39;;;;;;;4.55;2.30;;;;;;;8.69;72.28;101757.31;2080912;28;20528;-80
2022/03/21 03:49:02;;;;;;;8.13;3.63;;;;;;;8.67;72.26;101770.41;2092882;28;20622;-81
2022/03/21 03:50:25;;;;;;;8.10;3.03;;;;;;;8.66;71.95;101767.75;2081722;28;20465;-81
2022/03/21 03:51:47;;;;;;;12.02;3.63;;;;;;;8.67;71.74;101770.41;2079561;28;20100;-80
2022/03/21 03:53:10;;;;;;;5.70;2.33;;;;;;;8.66;71.48;101776.50;2101295;28;20078;-81
2022/03/21 03:54:32;;;;;;;6.55;2.72;;;;;;;8.63;71.26;101773.78;2084442;28;20120;-81
2022/03/21 03:55:54;;;;;;;9.48;3.13;;;;;;;8.65;71.00;101755.41;2084839;28;20045;-81
2022/03/21 03:57:18;;;;;;;7.57;2.85;;;;;;;8.66;71.32;101786.19;2087538;28;20040;-81
2022/03/21 03:58:39;;;;;;;5.45;2.72;;;;;;;8.65;71.04;101772.13;2104299;28;20044;-81
2022/03/21 04:00:01;;;;;;;7.07;2.53;;;;;;;8.62;70.52;101779.88;2109485;28;20043;-81
2022/03/21 04:01:24;;;;;;;10.48;4.07;;;;;;;8.61;70.44;101775.44;2101150;28;20052;-80
2022/03/21 04:04:27;;;;;;;7.72;3.42;;;;;;;8.63;70.00;101784.31;2078693;28;20037;-81
2022/03/21 04:05:49;;;;;;;7.00;3.50;;;;;;;8.64;69.92;101783.47;2087754;28;20140;-81
2022/03/21 04:07:11;;;;;;;;;;;;;;;8.65;69.66;101776.47;2085405;28;20152;-81
2022/03/21 04:08:34;;;;;;;4.43;2.30;;;;;;;8.63;70.00;101784.31;2084802;28;19921;-81
2022/03/21 04:09:56;;;;;;;7.20;2.75;;;;;;;8.63;70.19;101778.16;2076598;28;20053;-80
2022/03/21 04:11:18;;;;;;;8.18;3.45;;;;;;;8.63;69.97;101784.31;2076466;28;20826;-81
2022/03/21 04:12:46;;;;;;;4.65;2.90;;;;;;;8.65;69.45;101787.00;2089910;28;20136;-81
2022/03/21 04:14:09;;;;;;;3.95;2.55;;;;;;;8.66;69.72;101788.81;2112731;28;20052;-81
2022/03/21 04:15:32;;;;;;;4.22;2.28;;;;;;;8.63;68.60;101793.94;2102687;28;20044;-81
2022/03/21 04:16:53;;;;;;;4.20;2.10;;;;;;;8.60;67.86;101793.81;2097901;28;20047;-80
2022/03/21 04:18:16;;;;;;;6.78;3.00;;;;;;;8.57;67.68;101788.44;2095600;28;20048;-80
2022/03/21 04:19:38;;;;;;;4.40;2.20;;;;;;;8.55;67.94;101796.25;2104044;28;20032;-79
2022/03/21 04:21:01;;;;;;;7.20;2.78;;;;;;;8.55;67.83;101800.63;2095598;28;20109;-80
2022/03/21 04:22:23;;;;;;;5.50;2.10;;;;;;;8.53;68.09;101791.78;2095878;28;20160;-80
2022/03/21 04:23:46;;;;;;;4.60;2.40;;;;;;;8.53;68.14;101805.84;2087206;28;20102;-82
2022/03/21 04:25:11;;;;;;;7.78;2.97;;;;;;;8.49;67.30;101806.53;2079247;28;20053;-81
2022/03/21 04:26:34;;;;;;;2.17;1.40;;;;;;;8.49;67.70;101801.28;2102161;28;20052;-81
2022/03/21 04:27:57;;;;;;;8.85;3.30;;;;;;;8.52;67.50;101806.69;2098038;28;20484;-81
2022/03/21 04:29:19;;;;;;;5.05;2.80;;;;;;;8.56;68.00;101807.69;2097662;28;20048;-81
2022/03/21 04:30:41;;;;;;;8.40;2.67;;;;;;;8.60;68.00;101809.63;2088445;28;20044;-80
2022/03/21 04:32:04;;;;;;;6.47;1.90;;;;;;;8.61;67.05;101804.38;2087223;28;20106;-80
2022/03/21 04:33:27;;;;;;;4.28;2.28;;;;;;;8.62;67.44;101807.91;2084814;28;20489;-80
2022/03/21 04:34:48;;;;;;;4.30;1.73;;;;;;;8.63;67.36;101802.72;2084776;28;20494;-80
2022/03/21 04:36:11;;;;;;;6.38;2.33;;;;;;;8.64;66.58;101795.75;2089721;28;20036;-81
2022/03/21 04:37:34;;;;;;;5.80;2.92;;;;;;;8.66;67.05;101804.59;2101034;28;20048;-79
2022/03/21 04:38:56;;;;;;;3.55;2.38;;;;;;;8.69;67.54;101805.59;2096283;28;20089;-79
2022/03/21 04:40:18;;;;;;;6.68;2.72;;;;;;;8.70;67.71;101799.50;2103799;28;20074;-79
2022/03/21 04:41:40;;;;;;;12.23;3.95;;;;;;;8.75;68.06;101805.84;2092396;28;20056;-79
2022/03/21 04:43:05;;;;;;;4.25;1.88;;;;;;;8.76;67.85;101807.66;2085327;28;20402;-80
2022/03/21 04:44:27;;;;;;;11.98;3.47;;;;;;;8.75;68.27;101803.22;2084938;28;20045;-80
2022/03/21 04:45:50;;;;;;;5.90;2.55;;;;;;;8.75;67.95;101797.94;2101395;28;20052;-80
2022/03/21 04:47:11;;;;;;;5.30;2.45;;;;;;;8.76;68.28;101790.94;2098103;28;20699;-80
2022/03/21 04:48:35;;;;;;;12.95;4.65;;;;;;;8.76;68.24;101797.13;2095316;28;20036;-80
2022/03/21 04:49:56;;;;;;;13.85;4.10;;;;;;;8.76;68.23;101791.84;2087193;28;20508;-80
2022/03/21 04:51:19;;;;;;;15.88;5.40;;;;;;;8.77;68.00;101803.28;2084294;28;20041;-82
2022/03/21 04:52:40;;;;;;;15.45;6.32;;;;;;;8.76;68.21;101797.13;2084721;28;20048;-81
2022/03/21 04:54:03;;;;;;;16.30;5.35;;;;;;;8.78;67.81;101784.03;2084076;28;20076;-81
2022/03/21 04:55:26;;;;;;;21.83;7.63;;;;;;;8.80;68.13;101795.50;2084636;28;20069;-80
2022/03/21 04:56:47;;;;;;;128.45;33.78;;;;;;;8.80;67.94;101799.03;2093069;28;20508;-82
2022/03/21 04:58:12;;;;;;;62.55;18.05;;;;;;;8.83;67.63;101798.25;2081479;28;20049;-84
2022/03/21 04:59:33;;;;;;;50.13;16.48;;;;;;;8.83;67.54;101800.88;2084830;28;20041;-83
2022/03/21 05:00:56;;;;;;;47.85;15.48;;;;;;;8.83;67.67;101797.34;2078817;28;20359;-84
2022/03/21 05:02:17;;;;;;;47.88;18.65;;;;;;;8.84;67.27;101800.06;2092726;28;20080;-84
2022/03/21 05:03:42;;;;;;;23.17;8.23;;;;;;;8.85;67.12;101804.50;2073470;28;20042;-83
2022/03/21 05:05:05;;;;;;;27.92;11.15;;;;;;;8.85;67.25;101807.13;2090560;28;20432;-83
2022/03/21 05:06:27;;;;;;;16.67;8.18;;;;;;;8.85;66.78;101798.31;2089635;28;20506;-84
2022/03/21 05:07:52;;;;;;;14.45;6.78;;;;;;;8.85;67.18;101803.59;2095471;28;20195;-83
2022/03/21 05:09:14;;;;;;;7.97;3.88;;;;;;;8.86;67.15;101805.38;2101538;28;20529;-83
2022/03/21 05:10:36;;;;;;;6.53;3.45;;;;;;;8.84;65.91;101810.59;2103675;28;20135;-84
2022/03/21 05:11:59;;;;;;;5.85;2.55;;;;;;;8.80;64.99;101812.19;2087108;28;20090;-83
2022/03/21 05:13:22;;;;;;;6.55;3.28;;;;;;;8.79;65.24;101812.16;2091781;28;20139;-83
2022/03/21 05:14:45;;;;;;;3.28;1.63;;;;;;;8.78;65.10;101807.72;2094816;28;20036;-83
2022/03/21 05:16:08;;;;;;;8.25;3.42;;;;;;;8.78;65.45;101805.97;2095180;28;20049;-82
2022/03/21 05:17:31;;;;;;;4.78;2.40;;;;;;;8.83;65.85;101803.53;2101080;28;20048;-82
2022/03/21 05:18:53;;;;;;;5.70;1.88;;;;;;;8.86;65.83;101819.41;2088578;28;20049;-82
2022/03/21 05:20:17;;;;;;;4.43;1.67;;;;;;;8.85;65.42;101808.84;2109142;28;20048;-83
2022/03/21 05:21:40;;;;;;;6.63;3.30;;;;;;;8.86;65.55;101808.03;2092062;28;20056;-81
2022/03/21 05:31:23;;;;;;;5.05;2.75;;;;;;;8.86;64.62;101822.06;2084012;28;20505;-80
2022/03/21 05:32:44;;;;;;;3.05;2.00;;;;;;;8.85;64.81;101809.75;2086488;28;20684;-80
2022/03/21 05:35:56;;;;;;;5.53;2.63;;;;;;;8.89;65.48;101816.03;2081443;28;20080;-80
2022/03/21 05:37:19;;;;;;;4.75;1.50;;;;;;;8.95;65.83;101837.31;2086974;28;20061;-81
2022/03/21 05:38:41;;;;;;;7.68;2.60;;;;;;;8.98;65.37;101830.47;2078629;28;20128;-81
2022/03/21 05:41:46;;;;;;;12.55;2.50;;;;;;;9.03;65.48;101828.91;2087765;28;20044;-81
2022/03/21 05:43:08;;;;;;;3.00;1.52;;;;;;;9.06;65.15;101828.09;2092946;28;20705;-81
2022/03/21 05:44:31;;;;;;;7.82;2.55;;;;;;;9.05;64.91;101827.22;2092487;28;20093;-81
2022/03/21 05:45:55;;;;;;;3.83;2.47;;;;;;;9.09;65.06;101822.97;2095206;28;20045;-81
2022/03/21 05:47:17;;;;;;;6.03;2.92;;;;;;;9.10;64.57;101827.41;2092847;28;20098;-81
2022/03/21 05:49:00;;;;;;;7.57;2.15;;;;;;;9.11;64.64;101826.56;2100180;28;20495;-81
2022/03/21 05:50:21;;;;;;;5.47;2.00;;;;;;;9.13;64.88;101833.66;2093487;28;20048;-83
2022/03/21 05:51:44;;;;;;;6.57;2.63;;;;;;;9.14;64.75;101835.47;2094518;28;20055;-82
2022/03/21 05:53:06;;;;;;;3.22;1.67;;;;;;;9.13;63.96;101830.13;2078705;28;20056;-83
2022/03/21 05:54:28;;;;;;;;;;;;;;;9.13;63.96;101831.03;2090230;28;20543;-82
2022/03/21 05:55:50;;;;;;;6.97;3.00;;;;;;;9.10;63.76;101824.75;2089444;28;19998;-82
2022/03/21 05:57:12;;;;;;;2.65;1.58;;;;;;;9.06;63.09;101830.72;2086762;28;20045;-83
2022/03/21 05:58:35;;;;;;;5.95;2.03;;;;;;;9.04;62.90;101833.34;2078008;28;20075;-83
2022/03/21 06:01:39;;;;;;;7.22;2.90;;;;;;;9.06;63.25;101844.81;2104625;28;20060;-82
2022/03/21 06:03:01;;;;;;;5.88;2.85;;;;;;;9.06;63.32;101836.00;2085852;28;20080;-81
2022/03/21 06:04:24;;;;;;;5.35;2.05;;;;;;;9.08;63.48;101836.97;2091172;28;20060;-82
2022/03/21 06:05:46;;;;;;;5.82;2.45;;;;;;;9.10;63.79;101841.47;2091834;28;20048;-81
2022/03/21 06:07:11;;;;;;;8.07;2.97;;;;;;;9.13;63.30;101853.84;2092128;28;20036;-82
2022/03/21 06:08:34;;;;;;;15.52;3.03;;;;;;;9.13;63.22;101845.94;2078871;28;20444;-83
2022/03/21 06:09:56;;;;;;;4.93;2.17;;;;;;;9.13;63.04;101845.94;2089814;28;20500;-81
2022/03/21 06:11:19;;;;;;;5.88;2.67;;;;;;;9.15;62.61;101847.81;2078278;28;20046;-81
2022/03/21 06:12:41;;;;;;;8.40;3.92;;;;;;;9.15;62.70;101852.16;2092342;28;20052;-82
2022/03/21 06:14:04;;;;;;;4.07;2.00;;;;;;;9.18;62.76;101861.09;2089313;28;20135;-81
2022/03/21 06:15:26;;;;;;;8.65;2.75;;;;;;;9.23;62.35;101856.00;2100584;28;20131;-81
2022/03/21 06:16:50;;;;;;;6.43;2.20;;;;;;;9.26;62.11;101853.47;2080878;28;20061;-82
2022/03/21 06:18:14;;;;;;;7.70;2.55;;;;;;;9.26;61.76;101863.09;2084202;28;20040;-82
2022/03/21 06:19:35;;;;;;;6.18;2.20;;;;;;;9.27;61.57;101859.63;2084411;28;20065;-82
2022/03/21 06:20:58;;;;;;;7.95;2.80;;;;;;;9.27;61.51;101865.81;2091878;28;20041;-81
2022/03/21 06:22:19;;;;;;;4.25;2.25;;;;;;;9.29;61.65;101861.50;2088979;28;20045;-81
2022/03/21 06:23:42;;;;;;;7.07;2.95;;;;;;;9.35;61.80;101853.84;2103016;28;20113;-81
2022/03/21 06:25:05;;;;;;;4.80;2.63;;;;;;;9.42;61.35;101860.22;2091307;28;20118;-81
2022/03/21 06:26:28;;;;;;;8.65;3.30;;;;;;;9.46;61.28;101868.31;2102953;28;20048;-82
2022/03/21 06:27:49;;;;;;;4.97;2.50;;;;;;;9.47;60.44;101854.28;2096295;28;20139;-82
2022/03/21 06:29:12;;;;;;;2.25;1.52;;;;;;;9.47;60.36;101866.56;2094750;28;20585;-82
2022/03/21 06:30:35;;;;;;;3.97;1.90;;;;;;;9.45;59.71;101869.13;2091544;28;20045;-82
2022/03/21 06:31:59;;;;;;;3.45;1.70;;;;;;;9.45;60.18;101871.78;2089131;28;20083;-81
2022/03/21 06:33:23;;;;;;;5.78;2.90;;;;;;;9.44;59.98;101864.75;2079730;28;20097;-81
2022/03/21 06:34:44;;;;;;;6.13;2.80;;;;;;;9.47;60.23;101864.84;2092217;28;20475;-81
2022/03/21 06:36:07;;;;;;;10.70;4.28;;;;;;;9.51;60.30;101877.31;2091151;28;20053;-82
2022/03/21 06:37:28;;;;;;;12.27;4.75;;;;;;;9.53;59.91;101874.72;2093891;28;20077;-81
2022/03/21 06:38:51;;;;;;;6.20;2.88;;;;;;;9.53;60.13;101878.25;2091442;28;20178;-81
2022/03/21 06:40:12;;;;;;;3.53;2.28;;;;;;;9.56;60.31;101882.75;2094123;28;20056;-81
2022/03/21 06:41:35;;;;;;;5.43;2.40;;;;;;;9.59;60.01;101881.09;2111393;28;20035;-81
2022/03/21 06:42:58;;;;;;;6.38;4.13;;;;;;;9.66;60.18;101874.31;2099669;28;20044;-81
2022/03/21 06:44:20;;;;;;;8.73;5.35;;;;;;;9.75;60.16;101873.78;2085996;28;20106;-82
2022/03/21 06:45:43;;;;;;;3.92;3.00;;;;;;;9.80;60.11;101875.72;2094440;28;20049;-81
2022/03/21 06:47:07;;;;;;;8.32;4.53;;;;;;;9.80;59.79;101878.38;2093319;28;20055;-82
2022/03/21 06:48:30;;;;;;;3.78;2.55;;;;;;;9.75;59.62;101877.31;2094434;28;20049;-81